SWT871 YMML-YSSY
Flight info
| Callsign | SWT871 |
|---|---|
| Flight time | 1h 5m |
| Altitude | 37000 |
| Route | ML H129 DOSEL Y59 RIVET |
| Aircraft | B738/M-SDE2E3FGHIRWXY/LB1 |
Departure
| Time | 2026-04-23 09:45 |
|---|---|
| Airport | Melbourne Airport (YMML) |
Arrival
| Time | 2026-04-23 10:50 |
|---|---|
| Airport | Sydney Kingsford Smith International Airport (YSSY) |
| Time | Latitude | Longitude | Altitude | Speed | Heading |
|---|---|---|---|---|---|
| 2026-04-23 09:27 | -37.67824 | 144.84790 | 366 ft | 0 kts | 172° |
| 2026-04-23 09:36 | -37.67811 | 144.84788 | 371 ft | 4 kts | 174° |
| 2026-04-23 09:37 | -37.67785 | 144.84786 | 371 ft | 4 kts | 182° |
| 2026-04-23 09:37 | -37.67758 | 144.84790 | 372 ft | 4 kts | 193° |
| 2026-04-23 09:37 | -37.67733 | 144.84801 | 373 ft | 4 kts | 218° |
| 2026-04-23 09:37 | -37.67722 | 144.84821 | 374 ft | 2 kts | 262° |
| 2026-04-23 09:40 | -37.67723 | 144.84812 | 373 ft | 3 kts | 262° |
| 2026-04-23 09:40 | -37.67728 | 144.84758 | 372 ft | 9 kts | 263° |
| 2026-04-23 09:40 | -37.67746 | 144.84638 | 367 ft | 18 kts | 253° |
| 2026-04-23 09:41 | -37.67792 | 144.84598 | 366 ft | 10 kts | 199° |
| 2026-04-23 09:41 | -37.67823 | 144.84544 | 364 ft | 10 kts | 265° |
| 2026-04-23 09:41 | -37.67840 | 144.84428 | 364 ft | 16 kts | 235° |
| 2026-04-23 09:41 | -37.67935 | 144.84407 | 359 ft | 19 kts | 171° |
| 2026-04-23 09:42 | -37.68113 | 144.84440 | 356 ft | 31 kts | 172° |
| 2026-04-23 09:42 | -37.68250 | 144.84465 | 352 ft | 0 kts | 171° |
| 2026-04-23 09:42 | -37.68253 | 144.84465 | 353 ft | 4 kts | 171° |
| 2026-04-23 09:42 | -37.68324 | 144.84472 | 358 ft | 13 kts | 196° |
| 2026-04-23 09:43 | -37.68418 | 144.84414 | 350 ft | 17 kts | 213° |
| 2026-04-23 09:43 | -37.68530 | 144.84300 | 340 ft | 22 kts | 239° |
| 2026-04-23 09:43 | -37.68550 | 144.84236 | 336 ft | 0 kts | 258° |
| 2026-04-23 09:43 | -37.68551 | 144.84235 | 337 ft | 1 kts | 258° |
| 2026-04-23 09:44 | -37.68556 | 144.84192 | 339 ft | 9 kts | 261° |
| 2026-04-23 09:44 | -37.68553 | 144.84125 | 349 ft | 2 kts | 296° |
| 2026-04-23 09:44 | -37.68546 | 144.84108 | 350 ft | 3 kts | 302° |
| 2026-04-23 09:44 | -37.68490 | 144.84084 | 350 ft | 31 kts | 350° |
| 2026-04-23 09:45 | -37.68018 | 144.83995 | 358 ft | 104 kts | 352° |
| 2026-04-23 09:45 | -37.67104 | 144.83833 | 475 ft | 151 kts | 354° |
| 2026-04-23 09:45 | -37.66025 | 144.83662 | 1117 ft | 163 kts | 354° |
| 2026-04-23 09:45 | -37.64875 | 144.83445 | 1897 ft | 168 kts | 352° |
| 2026-04-23 09:46 | -37.63687 | 144.83202 | 2529 ft | 184 kts | 352° |
| 2026-04-23 09:46 | -37.62313 | 144.82925 | 2815 ft | 214 kts | 352° |
| 2026-04-23 09:46 | -37.60761 | 144.82615 | 3105 ft | 234 kts | 352° |
| 2026-04-23 09:46 | -37.59117 | 144.82454 | 3614 ft | 241 kts | 11° |
| 2026-04-23 09:47 | -37.57550 | 144.83196 | 4224 ft | 244 kts | 26° |
| 2026-04-23 09:47 | -37.56510 | 144.83830 | 4447 ft | 257 kts | 27° |
| 2026-04-23 09:47 | -37.54869 | 144.84841 | 5075 ft | 266 kts | 27° |
| 2026-04-23 09:47 | -37.53211 | 144.85861 | 6029 ft | 265 kts | 27° |
| 2026-04-23 09:48 | -37.51542 | 144.86884 | 6878 ft | 269 kts | 26° |
| 2026-04-23 09:48 | -37.49260 | 144.88274 | 7930 ft | 275 kts | 26° |
| 2026-04-23 09:48 | -37.48123 | 144.88964 | 8458 ft | 277 kts | 26° |
| 2026-04-23 09:48 | -37.46376 | 144.90023 | 9269 ft | 281 kts | 26° |
| 2026-04-23 09:49 | -37.44607 | 144.91101 | 10076 ft | 284 kts | 28° |
| 2026-04-23 09:49 | -37.43032 | 144.92668 | 10489 ft | 301 kts | 51° |
| 2026-04-23 09:49 | -37.41731 | 144.94866 | 10684 ft | 325 kts | 54° |
| 2026-04-23 09:49 | -37.40392 | 144.97273 | 10933 ft | 345 kts | 55° |
| 2026-04-23 09:50 | -37.39009 | 144.99782 | 11485 ft | 352 kts | 55° |
| 2026-04-23 09:50 | -37.37600 | 145.02324 | 12186 ft | 356 kts | 55° |
| 2026-04-23 09:50 | -37.36167 | 145.04891 | 12984 ft | 362 kts | 55° |
| 2026-04-23 09:50 | -37.34715 | 145.07477 | 14018 ft | 360 kts | 55° |
| 2026-04-23 09:51 | -37.33282 | 145.10014 | 15221 ft | 351 kts | 55° |
| 2026-04-23 09:51 | -37.31888 | 145.12476 | 16411 ft | 341 kts | 55° |
| 2026-04-23 09:51 | -37.30527 | 145.14875 | 17558 ft | 332 kts | 55° |
| 2026-04-23 09:51 | -37.29206 | 145.17202 | 18666 ft | 325 kts | 55° |
| 2026-04-23 09:52 | -37.27887 | 145.19522 | 19321 ft | 328 kts | 56° |
| 2026-04-23 09:52 | -37.26552 | 145.21871 | 19897 ft | 333 kts | 56° |
| 2026-04-23 09:52 | -37.25215 | 145.24221 | 20474 ft | 337 kts | 56° |
| 2026-04-23 09:52 | -37.23848 | 145.26622 | 21077 ft | 340 kts | 56° |
| 2026-04-23 09:53 | -37.22467 | 145.29046 | 21673 ft | 343 kts | 56° |
| 2026-04-23 09:53 | -37.21072 | 145.31493 | 22251 ft | 346 kts | 56° |
| 2026-04-23 09:53 | -37.19664 | 145.33962 | 22811 ft | 350 kts | 56° |
| 2026-04-23 09:53 | -37.18240 | 145.36455 | 23367 ft | 353 kts | 56° |
| 2026-04-23 09:54 | -37.16803 | 145.38968 | 23907 ft | 356 kts | 56° |
| 2026-04-23 09:54 | -37.15351 | 145.41504 | 24322 ft | 360 kts | 57° |
| 2026-04-23 09:54 | -37.13892 | 145.44051 | 24367 ft | 358 kts | 57° |
| 2026-04-23 09:54 | -37.12437 | 145.46586 | 24386 ft | 360 kts | 57° |
| 2026-04-23 09:55 | -37.10973 | 145.49137 | 24398 ft | 361 kts | 56° |
| 2026-04-23 09:55 | -37.09504 | 145.51696 | 24400 ft | 362 kts | 57° |
| 2026-04-23 09:55 | -37.08036 | 145.54251 | 24396 ft | 362 kts | 56° |
| 2026-04-23 09:55 | -37.06562 | 145.56814 | 24398 ft | 362 kts | 56° |
| 2026-04-23 09:56 | -37.05087 | 145.59377 | 24415 ft | 364 kts | 56° |
| 2026-04-23 09:56 | -37.03597 | 145.61967 | 24693 ft | 369 kts | 56° |
| 2026-04-23 09:56 | -37.02102 | 145.64561 | 25241 ft | 367 kts | 57° |
| 2026-04-23 09:56 | -37.00606 | 145.67156 | 25751 ft | 368 kts | 57° |
| 2026-04-23 09:57 | -36.99103 | 145.69761 | 26157 ft | 371 kts | 57° |
| 2026-04-23 09:57 | -36.97582 | 145.72396 | 26539 ft | 375 kts | 57° |
| 2026-04-23 09:57 | -36.96050 | 145.75048 | 26980 ft | 377 kts | 57° |
| 2026-04-23 09:57 | -36.94509 | 145.77713 | 27406 ft | 379 kts | 57° |
| 2026-04-23 09:58 | -36.92958 | 145.80392 | 27808 ft | 382 kts | 57° |
| 2026-04-23 09:58 | -36.91393 | 145.83094 | 28204 ft | 385 kts | 57° |
| 2026-04-23 09:58 | -36.89815 | 145.85815 | 28589 ft | 388 kts | 57° |
| 2026-04-23 09:58 | -36.88226 | 145.88554 | 28971 ft | 391 kts | 58° |
| 2026-04-23 09:59 | -36.86626 | 145.91311 | 29354 ft | 393 kts | 58° |
| 2026-04-23 09:59 | -36.85013 | 145.94086 | 29732 ft | 396 kts | 58° |
| 2026-04-23 09:59 | -36.83390 | 145.96876 | 30093 ft | 399 kts | 58° |
| 2026-04-23 09:59 | -36.81753 | 145.99688 | 30449 ft | 401 kts | 58° |
| 2026-04-23 10:00 | -36.80107 | 146.02513 | 30758 ft | 404 kts | 58° |
| 2026-04-23 10:00 | -36.78450 | 146.05355 | 31069 ft | 406 kts | 58° |
| 2026-04-23 10:00 | -36.76788 | 146.08201 | 31341 ft | 407 kts | 58° |
| 2026-04-23 10:00 | -36.75114 | 146.11068 | 31600 ft | 410 kts | 58° |
| 2026-04-23 10:01 | -36.73430 | 146.13948 | 31862 ft | 411 kts | 58° |
| 2026-04-23 10:01 | -36.71742 | 146.16833 | 32134 ft | 413 kts | 58° |
| 2026-04-23 10:01 | -36.70053 | 146.19714 | 32577 ft | 409 kts | 59° |
| 2026-04-23 10:01 | -36.68371 | 146.22583 | 32771 ft | 413 kts | 59° |
| 2026-04-23 10:02 | -36.66665 | 146.25494 | 32858 ft | 419 kts | 59° |
| 2026-04-23 10:02 | -36.64947 | 146.28424 | 33059 ft | 421 kts | 59° |
| 2026-04-23 10:02 | -36.63214 | 146.31374 | 33343 ft | 422 kts | 59° |
| 2026-04-23 10:02 | -36.61477 | 146.34325 | 33626 ft | 423 kts | 59° |
| 2026-04-23 10:03 | -36.59758 | 146.37245 | 33856 ft | 425 kts | 59° |
| 2026-04-23 10:03 | -36.58009 | 146.40212 | 34077 ft | 426 kts | 59° |
| 2026-04-23 10:03 | -36.56227 | 146.43235 | 34302 ft | 428 kts | 59° |
| 2026-04-23 10:03 | -36.54486 | 146.46184 | 34509 ft | 429 kts | 59° |
| 2026-04-23 10:04 | -36.52715 | 146.49183 | 34698 ft | 431 kts | 59° |
| 2026-04-23 10:04 | -36.50937 | 146.52189 | 34890 ft | 432 kts | 59° |
| 2026-04-23 10:04 | -36.49153 | 146.55205 | 35091 ft | 434 kts | 59° |
| 2026-04-23 10:04 | -36.47365 | 146.58224 | 35267 ft | 435 kts | 59° |
| 2026-04-23 10:05 | -36.45567 | 146.61258 | 35437 ft | 436 kts | 59° |
| 2026-04-23 10:05 | -36.43765 | 146.64298 | 35644 ft | 437 kts | 59° |
| 2026-04-23 10:05 | -36.41960 | 146.67336 | 35848 ft | 438 kts | 59° |
| 2026-04-23 10:05 | -36.40150 | 146.70379 | 36030 ft | 439 kts | 59° |
| 2026-04-23 10:06 | -36.38332 | 146.73435 | 36187 ft | 441 kts | 59° |
| 2026-04-23 10:06 | -36.36509 | 146.76497 | 36352 ft | 442 kts | 59° |
| 2026-04-23 10:06 | -36.34680 | 146.79564 | 36512 ft | 443 kts | 59° |
| 2026-04-23 10:06 | -36.32845 | 146.82641 | 36679 ft | 444 kts | 59° |
| 2026-04-23 10:07 | -36.31006 | 146.85722 | 36833 ft | 445 kts | 59° |
| 2026-04-23 10:07 | -36.29158 | 146.88814 | 36979 ft | 447 kts | 59° |
| 2026-04-23 10:07 | -36.27304 | 146.91914 | 37126 ft | 448 kts | 59° |
| 2026-04-23 10:07 | -36.25445 | 146.95021 | 37265 ft | 449 kts | 59° |
| 2026-04-23 10:08 | -36.23582 | 146.98129 | 37382 ft | 450 kts | 59° |
| 2026-04-23 10:08 | -36.19825 | 147.04396 | 37419 ft | 457 kts | 59° |
| 2026-04-23 10:09 | -36.14058 | 147.13988 | 37421 ft | 469 kts | 58° |
| 2026-04-23 10:09 | -36.10125 | 147.20515 | 37426 ft | 476 kts | 58° |
| 2026-04-23 10:10 | -36.06152 | 147.27095 | 37423 ft | 479 kts | 58° |
| 2026-04-23 10:10 | -36.02159 | 147.33696 | 37428 ft | 480 kts | 58° |
| 2026-04-23 10:11 | -35.98181 | 147.40260 | 37411 ft | 480 kts | 58° |
| 2026-04-23 10:11 | -35.94208 | 147.46800 | 37405 ft | 472 kts | 58° |
| 2026-04-23 10:12 | -35.90278 | 147.53264 | 37430 ft | 471 kts | 58° |
| 2026-04-23 10:12 | -35.86346 | 147.59725 | 37426 ft | 471 kts | 58° |
| 2026-04-23 10:13 | -35.82402 | 147.66185 | 37435 ft | 472 kts | 58° |
| 2026-04-23 10:13 | -35.78446 | 147.72647 | 37436 ft | 473 kts | 58° |
| 2026-04-23 10:14 | -35.74485 | 147.79106 | 37440 ft | 473 kts | 58° |
| 2026-04-23 10:14 | -35.70514 | 147.85571 | 37445 ft | 474 kts | 57° |
| 2026-04-23 10:15 | -35.66536 | 147.92038 | 37447 ft | 474 kts | 57° |
| 2026-04-23 10:15 | -35.62551 | 147.98505 | 37440 ft | 475 kts | 57° |
| 2026-04-23 10:16 | -35.58562 | 148.04965 | 37457 ft | 477 kts | 57° |
| 2026-04-23 10:16 | -35.54532 | 148.11483 | 37468 ft | 483 kts | 57° |
| 2026-04-23 10:17 | -35.50444 | 148.18080 | 37463 ft | 487 kts | 57° |
| 2026-04-23 10:17 | -35.46336 | 148.24695 | 37472 ft | 489 kts | 57° |
| 2026-04-23 10:18 | -35.42210 | 148.31326 | 37463 ft | 490 kts | 57° |
| 2026-04-23 10:18 | -35.38097 | 148.37909 | 37470 ft | 489 kts | 56° |
| 2026-04-23 10:19 | -35.33963 | 148.44511 | 37475 ft | 489 kts | 56° |
| 2026-04-23 10:19 | -35.29826 | 148.51110 | 37468 ft | 488 kts | 56° |
| 2026-04-23 10:20 | -35.25694 | 148.57690 | 37471 ft | 487 kts | 56° |
| 2026-04-23 10:20 | -35.21571 | 148.64243 | 37476 ft | 486 kts | 56° |
| 2026-04-23 10:21 | -35.17447 | 148.70788 | 37480 ft | 486 kts | 56° |
| 2026-04-23 10:21 | -35.13321 | 148.77322 | 37476 ft | 485 kts | 56° |
| 2026-04-23 10:22 | -35.09192 | 148.83848 | 37470 ft | 485 kts | 56° |
| 2026-04-23 10:22 | -35.05087 | 148.90322 | 37314 ft | 479 kts | 56° |
| 2026-04-23 10:23 | -35.03062 | 148.93512 | 37035 ft | 475 kts | 56° |
| 2026-04-23 10:23 | -35.01050 | 148.96677 | 36779 ft | 472 kts | 56° |
| 2026-04-23 10:23 | -34.99036 | 148.99846 | 36536 ft | 473 kts | 56° |
| 2026-04-23 10:23 | -34.97016 | 149.03023 | 36295 ft | 475 kts | 56° |
| 2026-04-23 10:24 | -34.94983 | 149.06217 | 36052 ft | 477 kts | 56° |
| 2026-04-23 10:24 | -34.92945 | 149.09415 | 35812 ft | 478 kts | 56° |
| 2026-04-23 10:24 | -34.90908 | 149.12607 | 35373 ft | 478 kts | 56° |
| 2026-04-23 10:24 | -34.88860 | 149.15814 | 34719 ft | 479 kts | 56° |
| 2026-04-23 10:25 | -34.86816 | 149.19011 | 34016 ft | 479 kts | 56° |
| 2026-04-23 10:25 | -34.84777 | 149.22196 | 33237 ft | 474 kts | 56° |
| 2026-04-23 10:25 | -34.82756 | 149.25352 | 32253 ft | 472 kts | 55° |
| 2026-04-23 10:25 | -34.80755 | 149.28472 | 31712 ft | 461 kts | 55° |
| 2026-04-23 10:26 | -34.78804 | 149.31513 | 31193 ft | 451 kts | 55° |
| 2026-04-23 10:26 | -34.76892 | 149.34492 | 30527 ft | 444 kts | 55° |
| 2026-04-23 10:26 | -34.75034 | 149.37382 | 30532 ft | 427 kts | 55° |
| 2026-04-23 10:26 | -34.73334 | 149.40337 | 30489 ft | 426 kts | 63° |
| 2026-04-23 10:27 | -34.71900 | 149.43548 | 29990 ft | 442 kts | 65° |
| 2026-04-23 10:27 | -34.70466 | 149.46907 | 29476 ft | 449 kts | 65° |
| 2026-04-23 10:27 | -34.69042 | 149.50256 | 28993 ft | 443 kts | 65° |
| 2026-04-23 10:27 | -34.67626 | 149.53560 | 28494 ft | 439 kts | 65° |
| 2026-04-23 10:28 | -34.66215 | 149.56825 | 28013 ft | 435 kts | 64° |
| 2026-04-23 10:28 | -34.64814 | 149.60045 | 27520 ft | 430 kts | 64° |
| 2026-04-23 10:28 | -34.63416 | 149.63243 | 27039 ft | 427 kts | 64° |
| 2026-04-23 10:28 | -34.62030 | 149.66407 | 26565 ft | 423 kts | 64° |
| 2026-04-23 10:29 | -34.60668 | 149.69510 | 26097 ft | 420 kts | 64° |
| 2026-04-23 10:29 | -34.59282 | 149.72667 | 25635 ft | 417 kts | 64° |
| 2026-04-23 10:29 | -34.57942 | 149.75718 | 25174 ft | 414 kts | 64° |
| 2026-04-23 10:29 | -34.56592 | 149.78789 | 24708 ft | 411 kts | 64° |
| 2026-04-23 10:30 | -34.55250 | 149.81840 | 24256 ft | 409 kts | 64° |
| 2026-04-23 10:30 | -34.53919 | 149.84863 | 23749 ft | 406 kts | 64° |
| 2026-04-23 10:30 | -34.52593 | 149.87874 | 23236 ft | 403 kts | 64° |
| 2026-04-23 10:30 | -34.51275 | 149.90861 | 22754 ft | 400 kts | 64° |
| 2026-04-23 10:31 | -34.49962 | 149.93834 | 22278 ft | 406 kts | 64° |
| 2026-04-23 10:31 | -34.48592 | 149.96941 | 21875 ft | 429 kts | 64° |
| 2026-04-23 10:31 | -34.47156 | 150.00194 | 21491 ft | 443 kts | 64° |
| 2026-04-23 10:31 | -34.45699 | 150.03485 | 21137 ft | 443 kts | 64° |
| 2026-04-23 10:32 | -34.44248 | 150.06752 | 20786 ft | 439 kts | 64° |
| 2026-04-23 10:32 | -34.42806 | 150.09998 | 20338 ft | 436 kts | 64° |
| 2026-04-23 10:32 | -34.41377 | 150.13215 | 19820 ft | 431 kts | 64° |
| 2026-04-23 10:32 | -34.39965 | 150.16391 | 19329 ft | 426 kts | 64° |
| 2026-04-23 10:33 | -34.38567 | 150.19533 | 18834 ft | 422 kts | 64° |
| 2026-04-23 10:33 | -34.37183 | 150.22644 | 18292 ft | 418 kts | 64° |
| 2026-04-23 10:33 | -34.35810 | 150.25727 | 17738 ft | 414 kts | 64° |
| 2026-04-23 10:33 | -34.34447 | 150.28787 | 17169 ft | 412 kts | 64° |
| 2026-04-23 10:34 | -34.33089 | 150.31834 | 16503 ft | 411 kts | 64° |
| 2026-04-23 10:34 | -34.31733 | 150.34871 | 15866 ft | 408 kts | 64° |
| 2026-04-23 10:34 | -34.30392 | 150.37873 | 15239 ft | 403 kts | 64° |
| 2026-04-23 10:34 | -34.29061 | 150.40847 | 14623 ft | 401 kts | 64° |
| 2026-04-23 10:35 | -34.27742 | 150.43795 | 13978 ft | 397 kts | 64° |
| 2026-04-23 10:35 | -34.26874 | 150.45732 | 13530 ft | 394 kts | 64° |
| 2026-04-23 10:35 | -34.25198 | 150.49467 | 13128 ft | 362 kts | 64° |
| 2026-04-23 10:35 | -34.24031 | 150.52070 | 12846 ft | 343 kts | 64° |
| 2026-04-23 10:36 | -34.23291 | 150.53719 | 12680 ft | 332 kts | 64° |
| 2026-04-23 10:36 | -34.22212 | 150.56129 | 12370 ft | 321 kts | 64° |
| 2026-04-23 10:36 | -34.21167 | 150.58464 | 11993 ft | 311 kts | 64° |
| 2026-04-23 10:36 | -34.20149 | 150.60736 | 11618 ft | 307 kts | 64° |
| 2026-04-23 10:37 | -34.19125 | 150.63018 | 11236 ft | 311 kts | 64° |
| 2026-04-23 10:37 | -34.18107 | 150.65280 | 11101 ft | 302 kts | 64° |
| 2026-04-23 10:37 | -34.17109 | 150.67497 | 10916 ft | 300 kts | 64° |
| 2026-04-23 10:37 | -34.16109 | 150.69722 | 10433 ft | 302 kts | 64° |
| 2026-04-23 10:38 | -34.15119 | 150.71922 | 10282 ft | 294 kts | 64° |
| 2026-04-23 10:38 | -34.14153 | 150.74065 | 10144 ft | 287 kts | 64° |
| 2026-04-23 10:38 | -34.13214 | 150.76151 | 10033 ft | 278 kts | 64° |
| 2026-04-23 10:38 | -34.12306 | 150.78164 | 9998 ft | 267 kts | 64° |
| 2026-04-23 10:39 | -34.11435 | 150.80092 | 9998 ft | 256 kts | 64° |
| 2026-04-23 10:39 | -34.10601 | 150.81936 | 9991 ft | 245 kts | 64° |
| 2026-04-23 10:39 | -34.09805 | 150.83701 | 9971 ft | 234 kts | 65° |
| 2026-04-23 10:39 | -34.09032 | 150.85417 | 9683 ft | 233 kts | 65° |
| 2026-04-23 10:40 | -34.08222 | 150.87228 | 8771 ft | 257 kts | 64° |
| 2026-04-23 10:40 | -34.07360 | 150.89147 | 8164 ft | 264 kts | 64° |
| 2026-04-23 10:40 | -34.06476 | 150.91111 | 7541 ft | 271 kts | 64° |
| 2026-04-23 10:40 | -34.05571 | 150.93120 | 6920 ft | 277 kts | 63° |
| 2026-04-23 10:41 | -34.04643 | 150.95177 | 6332 ft | 280 kts | 63° |
| 2026-04-23 10:41 | -34.03729 | 150.97199 | 6106 ft | 268 kts | 63° |
| 2026-04-23 10:41 | -34.02860 | 150.99118 | 6003 ft | 253 kts | 64° |
| 2026-04-23 10:41 | -34.01849 | 151.00762 | 5975 ft | 245 kts | 40° |
| 2026-04-23 10:42 | -34.00300 | 151.01595 | 5998 ft | 251 kts | 9° |
| 2026-04-23 10:42 | -33.98553 | 151.01470 | 6013 ft | 254 kts | 350° |
| 2026-04-23 10:42 | -33.96825 | 151.01020 | 6000 ft | 255 kts | 348° |
| 2026-04-23 10:42 | -33.95098 | 151.00537 | 5997 ft | 254 kts | 348° |
| 2026-04-23 10:43 | -33.93374 | 151.00050 | 5870 ft | 255 kts | 348° |
| 2026-04-23 10:43 | -33.91651 | 150.99561 | 5714 ft | 254 kts | 348° |
| 2026-04-23 10:43 | -33.89914 | 150.99099 | 5547 ft | 257 kts | 355° |
| 2026-04-23 10:43 | -33.88217 | 150.99471 | 5396 ft | 245 kts | 33° |
| 2026-04-23 10:44 | -33.87119 | 151.00921 | 5253 ft | 232 kts | 70° |
| 2026-04-23 10:44 | -33.86742 | 151.02748 | 4916 ft | 225 kts | 81° |
| 2026-04-23 10:44 | -33.86430 | 151.04636 | 4147 ft | 234 kts | 81° |
| 2026-04-23 10:44 | -33.86110 | 151.06580 | 3396 ft | 239 kts | 81° |
| 2026-04-23 10:45 | -33.85684 | 151.08467 | 3131 ft | 224 kts | 64° |
| 2026-04-23 10:45 | -33.84572 | 151.09674 | 2947 ft | 212 kts | 20° |
| 2026-04-23 10:45 | -33.83200 | 151.09976 | 2977 ft | 191 kts | 12° |
| 2026-04-23 10:45 | -33.81927 | 151.10305 | 2983 ft | 184 kts | 17° |
| 2026-04-23 10:46 | -33.80769 | 151.10896 | 2981 ft | 180 kts | 46° |
| 2026-04-23 10:46 | -33.80203 | 151.12169 | 2995 ft | 172 kts | 88° |
| 2026-04-23 10:46 | -33.80270 | 151.13603 | 2595 ft | 177 kts | 100° |
| 2026-04-23 10:46 | -33.80585 | 151.14950 | 2295 ft | 161 kts | 129° |
| 2026-04-23 10:47 | -33.81519 | 151.15473 | 2271 ft | 155 kts | 181° |
| 2026-04-23 10:47 | -33.82554 | 151.15262 | 2155 ft | 145 kts | 184° |
| 2026-04-23 10:47 | -33.83547 | 151.15203 | 1928 ft | 146 kts | 172° |
| 2026-04-23 10:47 | -33.84538 | 151.15374 | 1750 ft | 143 kts | 171° |
| 2026-04-23 10:48 | -33.85514 | 151.15452 | 1552 ft | 139 kts | 176° |
| 2026-04-23 10:48 | -33.86489 | 151.15549 | 1373 ft | 141 kts | 171° |
| 2026-04-23 10:48 | -33.87446 | 151.15748 | 1168 ft | 138 kts | 168° |
| 2026-04-23 10:48 | -33.88392 | 151.15979 | 989 ft | 138 kts | 168° |
| 2026-04-23 10:49 | -33.89339 | 151.16217 | 805 ft | 141 kts | 168° |
| 2026-04-23 10:49 | -33.90297 | 151.16463 | 615 ft | 140 kts | 167° |
| 2026-04-23 10:49 | -33.91246 | 151.16711 | 396 ft | 140 kts | 166° |
| 2026-04-23 10:49 | -33.92193 | 151.16958 | 220 ft | 139 kts | 166° |
| 2026-04-23 10:50 | -33.93135 | 151.17210 | 26 ft | 138 kts | 166° |
| 2026-04-23 10:50 | -33.93946 | 151.17421 | 17 ft | 91 kts | 168° |
| 2026-04-23 10:50 | -33.94396 | 151.17538 | 24 ft | 44 kts | 169° |
| 2026-04-23 10:50 | -33.94537 | 151.17646 | 24 ft | 18 kts | 90° |
| 2026-04-23 10:51 | -33.94523 | 151.17731 | 22 ft | 0 kts | 77° |
| 2026-04-23 10:51 | -33.94521 | 151.17745 | 22 ft | 4 kts | 77° |
| 2026-04-23 10:51 | -33.94516 | 151.17768 | 22 ft | 0 kts | 77° |
| 2026-04-23 10:53 | -33.94508 | 151.17780 | 24 ft | 3 kts | 39° |
| 2026-04-23 10:53 | -33.94478 | 151.17781 | 22 ft | 8 kts | 354° |
| 2026-04-23 10:53 | -33.94391 | 151.17753 | 22 ft | 18 kts | 344° |
| 2026-04-23 10:54 | -33.94257 | 151.17712 | 21 ft | 21 kts | 346° |
| 2026-04-23 10:54 | -33.94114 | 151.17667 | 21 ft | 21 kts | 345° |
| 2026-04-23 10:54 | -33.93959 | 151.17626 | 19 ft | 25 kts | 348° |
| 2026-04-23 10:54 | -33.93780 | 151.17579 | 17 ft | 26 kts | 349° |
| 2026-04-23 10:55 | -33.93608 | 151.17534 | 16 ft | 24 kts | 348° |
| 2026-04-23 10:55 | -33.93478 | 151.17502 | 19 ft | 19 kts | 353° |
| 2026-04-23 10:55 | -33.93352 | 151.17497 | 21 ft | 18 kts | 346° |
| 2026-04-23 10:55 | -33.93192 | 151.17455 | 20 ft | 33 kts | 348° |
| 2026-04-23 10:56 | -33.92988 | 151.17394 | 24 ft | 17 kts | 326° |
| 2026-04-23 10:56 | -33.92963 | 151.17330 | 20 ft | 8 kts | 282° |
| 2026-04-23 10:56 | -33.92960 | 151.17312 | 20 ft | 1 kts | 281° |
| 2026-04-23 10:56 | -33.92960 | 151.17311 | 20 ft | 0 kts | 281° |
| 2026-04-23 10:57 | -33.92959 | 151.17304 | 19 ft | 5 kts | 281° |
| 2026-04-23 10:57 | -33.92950 | 151.17231 | 19 ft | 12 kts | 274° |
| 2026-04-23 10:57 | -33.92953 | 151.17112 | 18 ft | 15 kts | 259° |
| 2026-04-23 10:58 | -33.92977 | 151.16991 | 20 ft | 15 kts | 257° |
| 2026-04-23 10:58 | -33.92999 | 151.16921 | 20 ft | 8 kts | 225° |
| 2026-04-23 10:58 | -33.93049 | 151.16909 | 20 ft | 0 kts | 172° |
| 2026-04-23 10:58 | -33.93050 | 151.16909 | 20 ft | 0 kts | 171° |
| 2026-04-23 11:04 | -33.93051 | 151.16909 | 20 ft | 1 kts | 171° |
| 2026-04-23 11:04 | -33.93070 | 151.16913 | 20 ft | 5 kts | 171° |
| 2026-04-23 11:04 | -33.93119 | 151.16926 | 20 ft | 10 kts | 165° |
| 2026-04-23 11:05 | -33.93153 | 151.16908 | 20 ft | 11 kts | 239° |
| 2026-04-23 11:05 | -33.93166 | 151.16846 | 20 ft | 8 kts | 256° |
| 2026-04-23 11:05 | -33.93174 | 151.16802 | 20 ft | 4 kts | 258° |
| 2026-04-23 11:05 | -33.93176 | 151.16794 | 20 ft | 0 kts | 258° |